Time;durP1;ratioP1;P1;durP2;ratioP2;P2;SDS_P1;SDS_P2;PMS_P1;PMS_P2;Temp;Humidity;BMP_temperature;BMP_pressure;BME280_temperature;BME280_humidity;BME280_pressure;Samples;Min_cycle;Max_cycle;Signal;HPM_P1;HPM_P2
2021/07/27 00:02:16;;;;;;;3.13;2.80;;;20.80;85.10;;;;;;10379465;28;20622;-24
2021/07/27 00:07:40;;;;;;;4.27;3.67;;;20.80;85.10;;;;;;10373009;28;20222;-23
2021/07/27 00:13:02;;;;;;;3.20;2.90;;;20.80;85.20;;;;;;10348890;28;20199;-22
2021/07/27 00:18:24;;;;;;;4.07;3.40;;;20.80;85.20;;;;;;10365331;28;20594;-23
2021/07/27 00:23:47;;;;;;;4.53;3.70;;;20.80;85.20;;;;;;10391200;28;20209;-24
2021/07/27 00:29:10;;;;;;;6.70;3.33;;;20.80;85.30;;;;;;10387226;28;20590;-24
2021/07/27 00:34:32;;;;;;;4.67;3.17;;;20.80;85.20;;;;;;10397070;28;20198;-23
2021/07/27 00:39:56;;;;;;;4.40;3.40;;;20.80;85.10;;;;;;10441820;22;20612;-35
2021/07/27 00:45:18;;;;;;;4.03;3.17;;;20.80;85.00;;;;;;10469048;28;20599;-33
2021/07/27 00:50:40;;;;;;;3.93;3.17;;;20.80;84.90;;;;;;10464209;28;20718;-31
2021/07/27 00:56:04;;;;;;;3.50;3.20;;;20.80;84.90;;;;;;10486225;28;20189;-31
2021/07/27 01:01:26;;;;;;;4.57;3.20;;;20.70;84.80;;;;;;10493432;28;20291;-34
2021/07/27 01:06:48;;;;;;;4.00;3.30;;;20.70;84.70;;;;;;10471055;28;20197;-36
2021/07/27 01:12:12;;;;;;;4.13;3.37;;;20.80;84.70;;;;;;10463027;28;20224;-38
2021/07/27 01:17:34;;;;;;;5.30;3.27;;;20.70;84.50;;;;;;10459292;28;20199;-36
2021/07/27 01:39:57;;;;;;;4.73;3.23;;;20.70;84.10;;;;;;10464781;28;20282;-35
2021/07/27 01:45:20;;;;;;;4.13;3.23;;;20.70;84.00;;;;;;10465405;28;20216;-33
2021/07/27 01:50:42;;;;;;;3.63;2.93;;;20.70;84.00;;;;;;10498221;28;20633;-33
2021/07/27 01:56:06;;;;;;;5.53;2.80;;;20.70;84.00;;;;;;10484325;28;20188;-33
2021/07/27 02:01:28;;;;;;;4.87;3.33;;;20.70;84.10;;;;;;10471820;28;20217;-35
2021/07/27 02:06:50;;;;;;;4.07;3.40;;;20.70;83.90;;;;;;10457834;28;20269;-35
2021/07/27 02:12:17;;;;;;;5.27;3.30;;;20.70;83.80;;;;;;10455548;28;20213;-36
2021/07/27 02:17:39;;;;;;;3.53;3.03;;;20.70;83.80;;;;;;10437641;28;20189;-30
2021/07/27 02:23:02;;;;;;;5.23;3.03;;;20.70;83.70;;;;;;10457710;28;20227;-37
2021/07/27 02:28:26;;;;;;;4.40;3.20;;;20.70;83.60;;;;;;10422566;28;20219;-34
2021/07/27 02:33:48;;;;;;;6.27;3.00;;;20.70;83.50;;;;;;10450958;28;20197;-33
2021/07/27 02:39:10;;;;;;;3.83;2.90;;;20.70;83.60;;;;;;10466916;28;20247;-32
2021/07/27 02:44:33;;;;;;;3.43;3.03;;;20.70;83.40;;;;;;10475142;28;20217;-35
2021/07/27 02:49:55;;;;;;;5.57;3.60;;;20.70;83.50;;;;;;10468810;28;20212;-32
2021/07/27 02:55:17;;;;;;;4.67;3.27;;;20.60;83.20;;;;;;10473587;28;20192;-33
2021/07/27 03:00:41;;;;;;;3.40;3.10;;;20.60;83.30;;;;;;10492859;28;20221;-34
2021/07/27 03:06:03;;;;;;;4.03;3.43;;;20.60;83.20;;;;;;10495097;28;20192;-35
2021/07/27 03:11:25;;;;;;;3.80;3.40;;;20.70;83.20;;;;;;10495775;28;20214;-34
2021/07/27 03:16:48;;;;;;;3.83;3.30;;;20.60;83.10;;;;;;10455091;28;20200;-33
2021/07/27 03:22:10;;;;;;;5.43;3.17;;;20.60;83.10;;;;;;10472639;28;20212;-35
2021/07/27 03:27:32;;;;;;;4.27;3.20;;;20.60;83.00;;;;;;10493537;28;20199;-35
2021/07/27 03:32:56;;;;;;;4.27;3.33;;;20.60;83.10;;;;;;10491541;28;20724;-37
2021/07/27 03:38:18;;;;;;;3.90;3.40;;;20.70;83.10;;;;;;10459399;28;20596;-35
2021/07/27 03:43:40;;;;;;;6.00;3.37;;;20.70;83.10;;;;;;10494042;28;20216;-32
2021/07/27 03:49:04;;;;;;;4.20;3.57;;;20.70;83.00;;;;;;10482066;28;20213;-33
2021/07/27 03:54:26;;;;;;;4.63;3.63;;;20.60;82.80;;;;;;10485320;28;20199;-35
2021/07/27 03:59:48;;;;;;;4.00;3.30;;;20.60;82.80;;;;;;10467987;28;20216;-34
2021/07/27 04:05:12;;;;;;;4.50;3.40;;;20.60;82.70;;;;;;10451238;28;20247;-35
2021/07/27 04:10:34;;;;;;;5.67;3.63;;;20.60;82.70;;;;;;10479758;28;20838;-37
2021/07/27 04:15:58;;;;;;;4.13;3.73;;;20.60;82.60;;;;;;10471180;28;20668;-32
2021/07/27 04:21:22;;;;;;;5.57;3.67;;;20.60;82.60;;;;;;10466642;28;20212;-35
2021/07/27 04:26:44;;;;;;;4.70;3.63;;;20.60;82.60;;;;;;10466277;28;20197;-35
2021/07/27 04:32:06;;;;;;;5.43;3.77;;;20.60;82.50;;;;;;10467592;28;20220;-36
2021/07/27 04:37:30;;;;;;;3.90;3.57;;;20.60;82.40;;;;;;10451577;28;20204;-34
2021/07/27 04:42:52;;;;;;;6.73;3.93;;;20.60;82.50;;;;;;10480224;28;20223;-33
2021/07/27 04:48:14;;;;;;;5.80;4.00;;;20.60;82.40;;;;;;10490684;28;20227;-32
2021/07/27 04:53:38;;;;;;;4.10;3.70;;;20.60;82.40;;;;;;10464137;28;20204;-34
2021/07/27 04:59:01;;;;;;;4.10;3.60;;;20.60;82.50;;;;;;10484526;28;20894;-33
2021/07/27 05:04:23;;;;;;;4.23;3.80;;;20.60;82.50;;;;;;10490593;28;20219;-33
2021/07/27 05:09:46;;;;;;;6.20;3.87;;;20.60;82.60;;;;;;10413915;28;20220;-35
2021/07/27 05:15:08;;;;;;;4.87;3.70;;;20.60;82.80;;;;;;10456929;28;20197;-33
2021/07/27 05:20:30;;;;;;;4.53;3.70;;;20.60;83.40;;;;;;10484202;28;20213;-37
2021/07/27 05:25:54;;;;;;;5.77;4.80;;;20.60;82.90;;;;;;10456429;28;20675;-34
2021/07/27 05:31:16;;;;;;;5.50;4.07;;;20.60;82.90;;;;;;10457810;28;20695;-32
2021/07/27 05:36:38;;;;;;;7.93;4.67;;;20.60;82.70;;;;;;10457355;28;20680;-33
2021/07/27 05:42:01;;;;;;;5.90;5.30;;;20.60;82.80;;;;;;10456815;28;20643;-33
2021/07/27 05:47:24;;;;;;;6.83;5.17;;;20.70;82.90;;;;;;10459095;28;20201;-33
2021/07/27 05:52:46;;;;;;;7.97;5.73;;;20.70;83.10;;;;;;10456219;28;20193;-33
2021/07/27 05:58:09;;;;;;;8.47;5.20;;;20.70;83.10;;;;;;10456879;28;20601;-33
2021/07/27 06:03:31;;;;;;;6.83;5.67;;;20.70;83.30;;;;;;10442086;28;20232;-35
2021/07/27 06:08:53;;;;;;;7.10;5.07;;;20.60;83.50;;;;;;10454071;28;20221;-37
2021/07/27 06:14:17;;;;;;;7.40;5.10;;;20.70;83.60;;;;;;10455374;28;20220;-33
2021/07/27 06:19:39;;;;;;;7.00;5.90;;;20.70;83.60;;;;;;10452156;28;20216;-35
2021/07/27 06:25:03;;;;;;;8.40;5.60;;;20.70;83.60;;;;;;10414230;28;20221;-37
2021/07/27 06:30:26;;;;;;;8.33;5.90;;;20.70;83.80;;;;;;10478847;28;20231;-34
2021/07/27 06:35:48;;;;;;;9.37;5.93;;;20.70;83.70;;;;;;10489932;28;20807;-33
2021/07/27 06:41:11;;;;;;;6.70;5.37;;;20.70;83.60;;;;;;10447424;28;20731;-32
2021/07/27 06:46:35;;;;;;;7.10;5.90;;;20.70;83.50;;;;;;10455362;28;20193;-36
2021/07/27 06:51:57;;;;;;;6.30;4.70;;;20.70;83.40;;;;;;10452365;28;20213;-34
2021/07/27 06:57:19;;;;;;;9.47;4.80;;;20.70;83.40;;;;;;10443539;28;20200;-32
2021/07/27 07:02:42;;;;;;;6.17;5.10;;;20.80;83.40;;;;;;10490091;28;20588;-35
2021/07/27 07:08:05;;;;;;;5.77;4.80;;;20.80;83.50;;;;;;10488605;28;21589;-32
2021/07/27 07:13:28;;;;;;;6.47;5.57;;;20.80;83.60;;;;;;10489480;28;20192;-35
2021/07/27 07:18:51;;;;;;;6.57;5.63;;;20.90;83.30;;;;;;10488020;28;20641;-32
2021/07/27 07:24:13;;;;;;;6.63;5.97;;;20.90;83.40;;;;;;10454295;28;20221;-36
2021/07/27 07:29:35;;;;;;;8.83;6.87;;;20.90;83.70;;;;;;10447031;28;20737;-37
2021/07/27 07:35:00;;;;;;;7.70;6.40;;;20.90;83.30;;;;;;10474204;28;20691;-33
2021/07/27 07:40:22;;;;;;;7.20;6.13;;;20.90;83.10;;;;;;10446801;28;20699;-34
2021/07/27 07:45:44;;;;;;;8.00;6.57;;;20.90;83.40;;;;;;10447349;28;20220;-33
2021/07/27 07:51:08;;;;;;;9.73;7.07;;;20.90;83.50;;;;;;10451236;28;20389;-34
2021/07/27 07:56:30;;;;;;;8.57;7.67;;;20.90;82.90;;;;;;10447284;28;20200;-35
2021/07/27 08:01:56;;;;;;;11.67;7.80;;;20.90;82.80;;;;;;10442484;28;20232;-33
2021/07/27 08:07:19;;;;;;;9.03;7.23;;;20.90;83.10;;;;;;10405431;28;20194;-37
2021/07/27 08:12:43;;;;;;;8.30;7.23;;;20.90;82.80;;;;;;10433996;28;20213;-35
2021/07/27 08:18:05;;;;;;;7.97;7.07;;;21.00;83.00;;;;;;10448049;28;20223;-36
2021/07/27 08:23:29;;;;;;;8.67;7.33;;;21.00;82.30;;;;;;10455339;28;20212;-35
2021/07/27 08:28:51;;;;;;;8.97;6.80;;;21.00;82.40;;;;;;10499557;22;20220;-22
2021/07/27 08:34:17;;;;;;;7.57;6.50;;;21.00;82.70;;;;;;10487418;28;20231;-23
2021/07/27 08:39:41;;;;;;;8.20;6.87;;;21.00;82.70;;;;;;10501859;28;20318;-22
2021/07/27 08:45:04;;;;;;;8.33;7.53;;;20.90;82.70;;;;;;10497216;28;20231;-23
2021/07/27 08:50:27;;;;;;;8.77;7.37;;;20.90;82.70;;;;;;10517970;28;20694;-24
2021/07/27 08:55:50;;;;;;;8.60;6.83;;;20.90;83.00;;;;;;10530744;28;20220;-24
2021/07/27 09:01:12;;;;;;;8.83;7.50;;;20.90;83.10;;;;;;10538483;28;20204;-24
2021/07/27 09:06:34;;;;;;;7.03;6.33;;;20.90;83.00;;;;;;10541513;28;20242;-23
2021/07/27 09:11:59;;;;;;;7.53;6.83;;;20.90;83.60;;;;;;10520048;28;20196;-23
2021/07/27 09:17:25;;;;;;;7.07;6.37;;;20.90;83.00;;;;;;10498883;28;20216;-22
2021/07/27 09:22:47;;;;;;;7.70;7.00;;;20.90;83.10;;;;;;10498898;28;20208;-22
2021/07/27 09:28:11;;;;;;;7.67;6.87;;;20.90;83.00;;;;;;10491989;28;20603;-24
2021/07/27 09:33:35;;;;;;;6.97;6.33;;;20.90;83.20;;;;;;10496011;28;20705;-23
2021/07/27 09:39:04;;;;;;;7.37;6.67;;;20.90;83.10;;;;;;10539326;28;20223;-22
2021/07/27 09:44:29;;;;;;;21.37;7.33;;;20.90;83.10;;;;;;10532169;28;20223;-24
2021/07/27 09:49:51;;;;;;;16.00;8.33;;;20.90;83.00;;;;;;10533282;28;20326;-23
2021/07/27 09:55:14;;;;;;;10.53;8.67;;;20.90;82.90;;;;;;10512787;28;20698;-23
2021/07/27 10:00:48;;;;;;;11.97;8.47;;;21.00;83.80;;;;;;10497962;28;20564;-23
2021/07/27 10:06:11;;;;;;;14.10;7.73;;;20.90;83.70;;;;;;10494055;28;20252;-23
2021/07/27 10:11:38;;;;;;;9.57;7.93;;;20.90;83.20;;;;;;10487576;28;20207;-23
2021/07/27 10:17:03;;;;;;;10.30;8.30;;;20.90;83.80;;;;;;10493977;28;20695;-23
2021/07/27 10:22:31;;;;;;;9.63;8.63;;;21.00;83.70;;;;;;10493672;28;20579;-23
2021/07/27 10:27:55;;;;;;;12.37;8.47;;;21.00;83.80;;;;;;10474149;28;20307;-22
2021/07/27 10:33:27;;;;;;;10.10;8.80;;;20.90;83.80;;;;;;10496821;28;20189;-23
2021/07/27 10:38:50;;;;;;;11.27;9.77;;;20.90;83.90;;;;;;10495584;28;20706;-23
2021/07/27 10:44:14;;;;;;;11.53;10.33;;;20.90;84.10;;;;;;10525095;28;20242;-23
2021/07/27 10:49:37;;;;;;;11.13;9.87;;;20.90;84.20;;;;;;10532391;28;20207;-23
2021/07/27 10:55:00;;;;;;;11.97;9.70;;;20.90;84.20;;;;;;10525578;28;20199;-23
2021/07/27 11:00:30;;;;;;;10.70;9.60;;;20.90;84.20;;;;;;10494574;28;20227;-23
2021/07/27 11:06:01;;;;;;;10.53;9.53;;;20.90;84.30;;;;;;10492698;28;20224;-24
2021/07/27 11:11:23;;;;;;;11.47;10.03;;;20.90;84.20;;;;;;10494782;28;20204;-24
2021/07/27 11:16:45;;;;;;;11.97;10.77;;;20.90;84.30;;;;;;10502954;28;20208;-24
2021/07/27 11:22:09;;;;;;;11.63;10.43;;;20.90;84.30;;;;;;10518338;28;20200;-22
2021/07/27 11:27:32;;;;;;;11.93;10.73;;;20.90;84.20;;;;;;10495475;28;20243;-24
2021/07/27 11:32:54;;;;;;;11.63;10.43;;;20.90;84.30;;;;;;10493209;28;20682;-24
2021/07/27 11:38:25;;;;;;;12.40;11.20;;;20.90;84.30;;;;;;10493419;28;20212;-24
2021/07/27 11:43:49;;;;;;;12.23;10.73;;;20.90;84.40;;;;;;10505297;28;20219;-25
2021/07/27 11:49:11;;;;;;;11.20;10.07;;;20.90;84.10;;;;;;10499574;28;20304;-25
2021/07/27 11:54:35;;;;;;;11.00;10.00;;;20.90;84.20;;;;;;10530692;28;20679;-24
2021/07/27 12:00:11;;;;;;;11.07;9.97;;;21.00;84.30;;;;;;10447933;28;20213;-23
2021/07/27 12:05:34;;;;;;;11.50;8.77;;;21.00;84.10;;;;;;10483497;28;20227;-25
2021/07/27 12:10:57;;;;;;;9.70;8.57;;;21.00;83.70;;;;;;10481192;28;20863;-22
2021/07/27 12:16:19;;;;;;;9.23;8.37;;;21.00;83.20;;;;;;10488124;28;20204;-22
2021/07/27 12:21:41;;;;;;;11.13;7.50;;;21.00;83.00;;;;;;10487885;28;20192;-22
2021/07/27 12:27:05;;;;;;;11.80;8.20;;;21.10;83.00;;;;;;10447229;28;20229;-24
2021/07/27 12:32:27;;;;;;;8.17;7.33;;;21.10;83.00;;;;;;10446080;28;20208;-23
2021/07/27 12:37:50;;;;;;;8.93;8.13;;;21.10;83.00;;;;;;10448045;28;20216;-23
2021/07/27 12:43:14;;;;;;;8.33;7.60;;;21.10;83.00;;;;;;10489381;28;20204;-24
2021/07/27 12:48:36;;;;;;;8.50;7.70;;;21.10;83.00;;;;;;10526699;28;20220;-23
2021/07/27 12:53:58;;;;;;;8.37;7.37;;;21.20;83.10;;;;;;10522984;28;20587;-23
2021/07/27 12:59:23;;;;;;;8.33;7.53;;;21.10;83.00;;;;;;10485333;28;20603;-23
2021/07/27 13:04:45;;;;;;;7.83;7.13;;;21.10;83.00;;;;;;10485962;28;20239;-24
2021/07/27 13:10:08;;;;;;;9.03;8.17;;;21.20;83.10;;;;;;10489470;28;20223;-24
2021/07/27 13:15:31;;;;;;;8.17;7.37;;;21.20;83.20;;;;;;10491527;28;20197;-24
2021/07/27 13:20:53;;;;;;;8.67;7.87;;;21.20;83.10;;;;;;10507119;28;20205;-22
2021/07/27 13:26:15;;;;;;;8.13;7.43;;;21.20;83.20;;;;;;10509153;28;20220;-23
2021/07/27 13:31:39;;;;;;;8.47;7.77;;;21.20;83.10;;;;;;10532536;28;20200;-23
2021/07/27 13:37:01;;;;;;;11.33;8.63;;;21.20;83.10;;;;;;10526661;28;20292;-23
2021/07/27 13:42:23;;;;;;;9.07;8.27;;;21.10;83.40;;;;;;10509616;28;20561;-24
2021/07/27 13:47:46;;;;;;;13.57;9.70;;;21.10;83.20;;;;;;10521805;28;20726;-23
2021/07/27 13:53:08;;;;;;;12.87;8.60;;;21.10;83.10;;;;;;10511455;28;20666;-23
2021/07/27 13:58:30;;;;;;;10.93;9.20;;;21.00;83.10;;;;;;10496473;28;20726;-24
2021/07/27 14:03:54;;;;;;;11.33;10.23;;;21.00;83.40;;;;;;10496966;28;20216;-24
2021/07/27 14:09:16;;;;;;;10.37;9.40;;;21.00;83.20;;;;;;10496742;28;20227;-23
2021/07/27 14:14:38;;;;;;;10.53;9.53;;;21.00;83.30;;;;;;10496878;28;20594;-23
2021/07/27 14:20:02;;;;;;;10.83;9.77;;;21.00;83.30;;;;;;10485698;28;20224;-23
2021/07/27 14:25:27;;;;;;;11.47;10.37;;;21.00;83.10;;;;;;10496660;28;20216;-25
2021/07/27 14:30:49;;;;;;;11.97;10.77;;;21.10;82.20;;;;;;10483102;22;20228;-33
2021/07/27 14:36:12;;;;;;;13.00;11.40;;;21.10;81.80;;;;;;10456983;28;20200;-35
2021/07/27 14:41:34;;;;;;;12.30;10.90;;;21.10;81.70;;;;;;10412740;28;20676;-33
2021/07/27 14:46:56;;;;;;;12.33;11.03;;;21.20;81.80;;;;;;10414764;28;20747;-34
2021/07/27 14:52:20;;;;;;;12.80;11.50;;;21.20;80.40;;;;;;10414459;28;20197;-34
2021/07/27 14:57:43;;;;;;;12.83;11.53;;;21.20;80.70;;;;;;10414624;28;20214;-35
2021/07/27 15:03:05;;;;;;;12.17;10.90;;;21.20;80.70;;;;;;10414203;28;20701;-33
2021/07/27 15:08:28;;;;;;;11.93;10.70;;;21.20;80.10;;;;;;10414114;28;20719;-37
2021/07/27 15:13:50;;;;;;;12.20;10.90;;;21.20;79.30;;;;;;10413850;28;20197;-35
2021/07/27 15:19:13;;;;;;;11.23;10.23;;;21.20;79.50;;;;;;10413053;28;20218;-38
2021/07/27 15:24:37;;;;;;;10.90;9.90;;;21.20;79.60;;;;;;10412210;28;20257;-38
2021/07/27 15:30:04;;;;;;;10.63;9.63;;;21.20;79.60;;;;;;10429384;28;20233;-30
2021/07/27 15:35:28;;;;;;;11.03;9.93;;;21.20;79.80;;;;;;10406722;28;20542;-33
2021/07/27 15:40:51;;;;;;;10.97;9.87;;;21.20;79.80;;;;;;10412572;28;20372;-34
2021/07/27 15:46:13;;;;;;;10.80;9.80;;;21.20;80.00;;;;;;10410629;28;20218;-33
2021/07/27 15:51:35;;;;;;;10.70;9.33;;;21.20;79.50;;;;;;10446222;28;20201;-37
2021/07/27 15:56:59;;;;;;;9.90;8.87;;;21.20;79.50;;;;;;10430702;28;20213;-35
2021/07/27 16:02:21;;;;;;;10.10;9.10;;;21.20;79.10;;;;;;10442314;28;20649;-33
2021/07/27 16:07:43;;;;;;;9.17;8.20;;;21.20;79.50;;;;;;10449632;28;20720;-33
2021/07/27 16:13:06;;;;;;;9.80;8.80;;;21.20;79.90;;;;;;10450455;28;20201;-32
2021/07/27 16:18:28;;;;;;;9.77;8.77;;;21.20;80.00;;;;;;10419345;28;20225;-36
2021/07/27 16:23:51;;;;;;;9.70;8.77;;;21.20;79.80;;;;;;10403107;28;20221;-32
2021/07/27 16:29:14;;;;;;;10.37;9.37;;;21.20;79.00;;;;;;10402248;28;20217;-36
2021/07/27 16:34:36;;;;;;;8.97;8.17;;;21.20;79.40;;;;;;10405733;28;20190;-37
2021/07/27 16:39:59;;;;;;;9.13;8.23;;;21.20;78.90;;;;;;10405198;28;20226;-33
2021/07/27 16:45:22;;;;;;;9.33;8.47;;;21.20;78.90;;;;;;10409164;28;20221;-33
2021/07/27 16:50:44;;;;;;;10.83;8.67;;;21.20;79.70;;;;;;10367794;28;20217;-36
2021/07/27 16:56:06;;;;;;;9.37;8.40;;;21.10;80.60;;;;;;10417138;28;20185;-36
2021/07/27 17:01:30;;;;;;;9.63;8.03;;;21.10;80.70;;;;;;10428403;28;20197;-35
2021/07/27 17:06:52;;;;;;;9.77;8.77;;;21.10;81.20;;;;;;10426712;28;20297;-35
2021/07/27 17:12:14;;;;;;;9.60;8.67;;;21.10;81.20;;;;;;10411502;28;20569;-34
2021/07/27 17:17:38;;;;;;;9.10;8.20;;;21.10;81.20;;;;;;10418864;28;20217;-33
2021/07/27 17:23:00;;;;;;;8.90;8.00;;;21.00;81.30;;;;;;10431477;28;20196;-35
2021/07/27 17:28:22;;;;;;;9.40;8.57;;;21.00;81.40;;;;;;10433445;28;20261;-39
2021/07/27 17:33:46;;;;;;;8.80;7.90;;;21.00;81.40;;;;;;10433306;28;20194;-34
2021/07/27 17:39:08;;;;;;;8.50;7.70;;;21.00;81.40;;;;;;10435365;28;20214;-36
2021/07/27 17:44:30;;;;;;;8.03;7.23;;;21.00;81.30;;;;;;10433340;28;20217;-35
2021/07/27 17:49:53;;;;;;;9.20;8.23;;;21.10;81.10;;;;;;10433874;28;20214;-37
2021/07/27 17:55:15;;;;;;;9.77;8.20;;;21.00;81.20;;;;;;10434736;28;20190;-37
2021/07/27 18:00:39;;;;;;;8.80;7.67;;;21.00;81.40;;;;;;10407738;28;20213;-35
2021/07/27 18:06:02;;;;;;;8.57;7.77;;;21.00;81.60;;;;;;10416931;28;20703;-38
2021/07/27 18:11:25;;;;;;;8.83;7.50;;;21.00;81.80;;;;;;10414057;28;20677;-35
2021/07/27 18:16:47;;;;;;;8.57;7.77;;;21.00;82.60;;;;;;10447452;28;20287;-34
2021/07/27 18:22:11;;;;;;;8.30;7.57;;;21.00;81.80;;;;;;10434706;28;20716;-33
2021/07/27 18:27:33;;;;;;;9.33;8.10;;;21.00;81.80;;;;;;10414498;28;20793;-34
2021/07/27 18:32:55;;;;;;;10.83;8.00;;;21.00;81.40;;;;;;10415674;28;20202;-34
2021/07/27 18:38:18;;;;;;;8.13;7.33;;;21.00;81.50;;;;;;10414199;28;20339;-36
2021/07/27 18:43:45;;;;;;;7.20;6.50;;;21.00;81.50;;;;;;10415892;28;20577;-35
2021/07/27 18:49:07;;;;;;;8.93;6.93;;;21.00;81.10;;;;;;10413795;28;20222;-33
2021/07/27 18:54:31;;;;;;;7.67;6.87;;;21.00;81.10;;;;;;10415128;28;20190;-32
2021/07/27 18:59:53;;;;;;;7.43;6.77;;;21.00;81.10;;;;;;10413626;28;20237;-32
2021/07/27 19:05:15;;;;;;;7.50;6.80;;;21.00;80.80;;;;;;10416150;28;20213;-33
2021/07/27 19:10:38;;;;;;;11.23;7.47;;;21.00;80.90;;;;;;10430695;28;20218;-35
2021/07/27 19:16:01;;;;;;;7.60;6.80;;;21.00;81.10;;;;;;10430894;28;20196;-33
2021/07/27 19:21:23;;;;;;;7.33;6.63;;;21.00;80.70;;;;;;10432890;28;20200;-33
2021/07/27 19:26:46;;;;;;;7.43;6.70;;;21.00;80.70;;;;;;10431003;28;20225;-35
2021/07/27 19:32:08;;;;;;;7.57;6.87;;;21.00;81.10;;;;;;10439043;28;20189;-33
2021/07/27 19:37:30;;;;;;;7.23;6.47;;;21.00;80.60;;;;;;10452175;28;20220;-36
2021/07/27 19:43:04;;;;;;;7.50;6.60;;;21.00;80.10;;;;;;10451313;28;20699;-33
2021/07/27 19:48:35;;;;;;;9.57;6.83;;;21.00;79.50;;;;;;10401543;28;20299;-34
2021/07/27 19:53:57;;;;;;;7.70;7.00;;;21.00;79.10;;;;;;10404192;28;20247;-35
2021/07/27 19:59:22;;;;;;;8.83;6.70;;;21.00;78.90;;;;;;10430100;28;20225;-32
2021/07/27 20:04:44;;;;;;;10.23;5.93;;;21.00;79.00;;;;;;10426107;28;20711;-33
2021/07/27 20:10:07;;;;;;;7.13;5.47;;;21.00;78.80;;;;;;10425925;28;20611;-34
2021/07/27 20:15:31;;;;;;;7.07;5.83;;;21.00;78.60;;;;;;10432253;28;20193;-35
2021/07/27 20:20:53;;;;;;;8.67;6.30;;;21.00;78.40;;;;;;10422722;28;20228;-35
2021/07/27 20:26:15;;;;;;;7.30;5.80;;;21.00;78.20;;;;;;10426229;28;20596;-36
2021/07/27 20:31:39;;;;;;;6.37;5.77;;;21.00;77.90;;;;;;10387887;22;20252;-24
2021/07/27 20:37:01;;;;;;;6.20;5.53;;;20.90;77.80;;;;;;10352517;28;20187;-25
2021/07/27 20:42:23;;;;;;;5.93;5.43;;;20.90;77.70;;;;;;10349933;28;20222;-23
2021/07/27 20:47:47;;;;;;;6.70;5.60;;;20.90;77.50;;;;;;10348331;28;20298;-24
2021/07/27 20:53:09;;;;;;;7.07;5.30;;;20.90;77.50;;;;;;10344820;28;20195;-25
2021/07/27 20:58:31;;;;;;;5.60;5.10;;;20.90;77.50;;;;;;10357630;28;20279;-24
2021/07/27 21:03:54;;;;;;;6.73;5.83;;;20.90;77.60;;;;;;10356583;28;20257;-25
2021/07/27 21:09:16;;;;;;;6.33;5.73;;;20.90;77.50;;;;;;10370060;28;20219;-24
2021/07/27 21:14:39;;;;;;;5.77;5.13;;;20.90;77.50;;;;;;10377677;28;20209;-24
2021/07/27 21:20:02;;;;;;;6.90;5.50;;;20.90;77.40;;;;;;10372021;28;20309;-24
2021/07/27 21:25:24;;;;;;;5.90;5.30;;;20.90;77.30;;;;;;10340310;28;20218;-25
2021/07/27 21:30:46;;;;;;;7.20;5.30;;;20.90;77.20;;;;;;10376217;28;20230;-25
2021/07/27 21:36:10;;;;;;;5.70;4.90;;;20.90;77.30;;;;;;10335334;28;20580;-24
2021/07/27 21:41:32;;;;;;;5.33;4.83;;;20.80;77.50;;;;;;10371869;28;20225;-23
2021/07/27 21:46:54;;;;;;;5.37;4.83;;;20.80;77.40;;;;;;10348127;28;20227;-25
2021/07/27 21:52:17;;;;;;;5.70;5.13;;;20.80;77.40;;;;;;10327391;28;20219;-24
2021/07/27 21:57:39;;;;;;;7.43;5.47;;;20.80;77.50;;;;;;10294170;28;20207;-24
2021/07/27 22:03:02;;;;;;;5.97;5.10;;;20.80;77.70;;;;;;10308746;28;20555;-24
2021/07/27 22:08:25;;;;;;;6.60;5.07;;;20.70;77.70;;;;;;10332010;28;20227;-24
2021/07/27 22:13:47;;;;;;;6.07;4.97;;;20.70;77.90;;;;;;10328387;28;20203;-25
2021/07/27 22:19:09;;;;;;;6.20;5.57;;;20.70;77.90;;;;;;10337496;28;20262;-26
2021/07/27 22:24:33;;;;;;;6.50;5.50;;;20.70;78.20;;;;;;10328079;28;20199;-24
2021/07/27 22:29:55;;;;;;;5.83;4.97;;;20.70;78.50;;;;;;10333659;28;20741;-24
2021/07/27 22:35:18;;;;;;;6.03;5.03;;;20.60;78.50;;;;;;10335482;28;20203;-24
2021/07/27 22:40:42;;;;;;;5.33;4.73;;;20.70;78.50;;;;;;10332222;28;20230;-24
2021/07/27 22:46:04;;;;;;;5.57;5.03;;;20.70;78.70;;;;;;10333697;28;20698;-24
2021/07/27 22:51:26;;;;;;;6.57;5.03;;;20.60;78.70;;;;;;10333395;28;20211;-24
2021/07/27 22:56:49;;;;;;;6.13;5.30;;;20.60;78.80;;;;;;10319056;28;20206;-24
2021/07/27 23:02:12;;;;;;;5.93;5.30;;;20.60;78.90;;;;;;10291678;28;20243;-24
2021/07/27 23:07:34;;;;;;;5.83;5.33;;;20.60;79.00;;;;;;10292669;28;20572;-24
2021/07/27 23:12:58;;;;;;;5.87;5.37;;;20.60;79.00;;;;;;10330542;28;20206;-24
2021/07/27 23:18:20;;;;;;;7.73;5.57;;;20.60;79.40;;;;;;10324836;28;20211;-24
2021/07/27 23:23:43;;;;;;;7.90;5.30;;;20.60;79.40;;;;;;10332620;28;20285;-24
2021/07/27 23:29:09;;;;;;;7.63;5.37;;;20.60;79.60;;;;;;10331114;28;20223;-23
2021/07/27 23:34:31;;;;;;;6.07;5.03;;;20.60;79.60;;;;;;10331320;28;20203;-23
2021/07/27 23:39:54;;;;;;;5.97;5.37;;;20.60;79.90;;;;;;10328522;28;20241;-24
2021/07/27 23:45:17;;;;;;;7.53;5.43;;;20.60;80.30;;;;;;10329800;28;20219;-24
2021/07/27 23:50:39;;;;;;;6.00;5.37;;;20.60;79.80;;;;;;10330370;28;20698;-24
2021/07/27 23:56:01;;;;;;;8.83;4.93;;;20.50;79.70;;;;;;10329989;28;20199;-25
